Klik op de webcam foto voor een grotere versieKlik op de webcam foto voor een grotere versie
Of klik hier voor
de webcam video


Weerstation
Wilsele-Leuven:Website of another weatherstation



Het weer levert geen direct gevaar op.    Er zijn geen waarschuwingen afgegeven.

Nabijgelegen vliegvelden - METAR rapporten

   
EBBR - Vaartkom-Leuven
Gewijzigd: 19-02-2019 13:50
Gedeeltelijk bewolkt    Wind: Westen 17 km/h
Gedeeltelijk bewolkt
Wind: Wind: Westen 17 km/h
Temperatuur: 10°C
Voelt als: 8°C
Dauwpunt: 3°C
Vochtigheid: 62%
Barometer: 1020 hPa
Bewolking: Gedeeltelijk bewolkt
Zicht: meer dan 10 km
Bewolking: Gedeeltelijk bewolkt 640.1 m
EBBR 191250Z 26009KT 230V290 9999 SCT021 10/03 Q1020 NOSIG
EBAW - Antwerp
Gewijzigd: 19-02-2019 13:50
Gedeeltelijk bewolkt    Wind: Westen 22 km/h
Gedeeltelijk bewolkt
Wind: Wind: Westen 22 km/h
Temperatuur: 10°C
Voelt als: 7°C
Dauwpunt: 3°C
Vochtigheid: 62%
Barometer: 1020 hPa
Bewolking: Gedeeltelijk bewolkt
Zicht: meer dan 10 km
Bewolking: Gedeeltelijk bewolkt 914.4 m
EBAW 191250Z 27012KT 9999 SCT030 10/03 Q1020 NOSIG
EBLG - Liège
Gewijzigd: 19-02-2019 13:50
Gedeeltelijk bewolkt    Wind: Westen 26 km/h
Gedeeltelijk bewolkt
Wind: Wind: Westen 26 km/h
Temperatuur: 10°C
Voelt als: 7°C
Dauwpunt: 3°C
Vochtigheid: 62%
Barometer: 1020 hPa
Bewolking: Gedeeltelijk bewolkt
Zicht: meer dan 10 km
Bewolking: Gedeeltelijk bewolkt 762 m
EBLG 191250Z 27014KT 9999 SCT025 10/03 Q1020 NOSIG
EBCV - Mons/Bergen
Gewijzigd: 19-02-2019 13:25
Grotendeels bewolkt    Wind: WZW 20 km/h
Grotendeels bewolkt
Wind: Wind: WZW 20 km/h
Temperatuur: 9°C
Voelt als: 6°C
Dauwpunt: 4°C
Vochtigheid: 71%
Barometer: 1021 hPa
Bewolking: Grotendeels bewolkt
Zicht: meer dan 10 km
Bewolking: Grotendeels bewolkt 731.5 m
EBCV 191225Z AUTO 25011KT 9999 BKN024/// 09/04 Q1021 WHT
EHBK - Maastricht
Gewijzigd: 19-02-2019 13:55
Bewolking    Wind: WZW 19 km/h
Bewolking
Wind: Wind: WZW 19 km/h
Temperatuur: 10°C
Voelt als: 8°C
Dauwpunt: 3°C
Vochtigheid: 62%
Barometer: 1020 hPa
Bewolking: Bewolking
Zicht: meer dan 10 km
Bewolking: Grotendeels bewolkt 823 m,
Bewolking 944.9 m
EHBK 191255Z AUTO 24010KT 200V300 9999 BKN027 OVC031 10/03 Q1020 NOSIG
ELLX - Luxemburg
Gewijzigd: 19-02-2019 13:50
Gedeeltelijk bewolkt    Wind: ZW 19 km/h
Gedeeltelijk bewolkt
Wind: Wind: ZW 19 km/h
Temperatuur: 9°C
Voelt als: 6°C
Dauwpunt: 2°C
Vochtigheid: 62%
Barometer: 1021 hPa
Bewolking: Gedeeltelijk bewolkt
Zicht: meer dan 10 km
Bewolking: Gedeeltelijk bewolkt 762 m
ELLX 191250Z 23010KT 9999 SCT025 09/02 Q1021 NOSIG
EBOS - Oostende
Gewijzigd: 19-02-2019 13:50
Licht bewolkt    Wind: Westen 32 km/h
Licht bewolkt
Wind: Wind: Westen 32 km/h
Temperatuur: 9°C
Voelt als: 5°C
Dauwpunt: 5°C
Vochtigheid: 76%
Barometer: 1021 hPa
Bewolking: Licht bewolkt
Zicht: meer dan 10 km
Bewolking: Licht bewolkt 609.6 m
EBOS 191250Z 26017KT 9999 FEW020 09/05 Q1021 NOSIG
  

Script ontwikkeld door  Saratoga-weather.org Aangepast voor de template door  Weerstation Leuven

U vindt ons ook hier:

UK Metoffice

WeatherCloud

European Weather Network

Weather Underground

Bernelux Weather Network

AWEKAS

WeatherlinkIP

Citizen Weather Observer Program (CWOP)

HAMweather, WeatherForYou, PWS Weather

Apparatuur in gebruik:

Weer-station
Davis VUE

Weer-programma
Meteobridge

Weer-computer
D-Link DIR-505

Webleverancier
Robohost

Davis VUE

Meteobridge

D-Link DIR-505

Robohost